Time;durP1;ratioP1;P1;durP2;ratioP2;P2;SDS_P1;SDS_P2;PMS_P1;PMS_P2;Temp;Humidity;BMP_temperature;BMP_pressure;BME280_temperature;BME280_humidity;BME280_pressure;Samples;Min_cycle;Max_cycle;Signal;HPM_P1;HPM_P2
2023/10/27 00:00:21;;;;;;;32.38;24.10;;;;;;;13.60;64.63;98720.06;674682;29;1698;-90
2023/10/27 00:00:42;;;;;;;32.30;24.23;;;;;;;13.55;64.45;98709.66;672331;29;1473;-90
2023/10/27 00:01:03;;;;;;;30.70;23.50;;;;;;;13.57;64.57;98713.09;674369;29;1199;-90
2023/10/27 00:01:24;;;;;;;28.53;23.70;;;;;;;13.59;64.78;98716.59;676734;29;1611;-90
2023/10/27 00:01:44;;;;;;;29.92;23.20;;;;;;;13.49;64.38;98691.41;672141;29;1479;-90
2023/10/27 00:02:05;;;;;;;32.63;23.80;;;;;;;13.59;64.44;98716.59;674642;29;1250;-90
2023/10/27 00:02:26;;;;;;;33.25;23.92;;;;;;;13.61;64.40;98714.78;671961;29;1220;-90
2023/10/27 00:02:46;;;;;;;31.60;24.10;;;;;;;13.60;64.47;98712.19;672052;29;1504;-90
2023/10/27 00:03:07;;;;;;;29.25;23.48;;;;;;;13.59;64.27;98710.47;679786;29;1346;-90
2023/10/27 00:03:28;;;;;;;27.83;23.23;;;;;;;13.63;64.54;98714.78;680005;29;1291;-90
2023/10/27 00:03:48;;;;;;;27.52;23.25;;;;;;;13.56;64.43;98695.66;679025;29;1578;-90
2023/10/27 00:04:09;;;;;;;25.50;22.37;;;;;;;13.54;64.10;98700.91;672215;29;1181;-90
2023/10/27 00:04:30;;;;;;;24.48;21.50;;;;;;;13.62;64.47;98716.50;672173;29;1460;-90
2023/10/27 00:04:51;;;;;;;24.00;21.40;;;;;;;13.57;64.31;98706.13;678356;29;1132;-90
2023/10/27 00:05:12;;;;;;;25.65;22.75;;;;;;;13.57;64.40;98703.50;669467;29;1266;-89
2023/10/27 00:05:32;;;;;;;28.08;23.48;;;;;;;13.62;64.17;98708.66;669930;29;1229;-90
2023/10/27 00:05:53;;;;;;;27.90;23.20;;;;;;;13.54;64.18;98697.44;673101;29;1627;-90
2023/10/27 00:06:14;;;;;;;27.65;22.60;;;;;;;13.56;64.25;98700.91;680171;29;1122;-90
2023/10/27 00:06:35;;;;;;;29.25;23.80;;;;;;;13.61;64.14;98704.31;677584;29;1151;-90
2023/10/27 00:06:56;;;;;;;29.13;23.92;;;;;;;13.53;64.41;98695.72;668440;29;1297;-90
2023/10/27 00:07:17;;;;;;;28.60;23.10;;;;;;;13.58;64.60;98699.09;669737;29;1180;-90
2023/10/27 00:07:38;;;;;;;24.90;21.15;;;;;;;13.62;64.62;98711.28;675007;29;1223;-90
2023/10/27 00:07:59;;;;;;;25.33;21.55;;;;;;;13.62;64.31;98708.66;678058;29;1473;-89
2023/10/27 00:08:19;;;;;;;26.20;22.90;;;;;;;13.61;64.43;98704.31;677460;29;1229;-90
2023/10/27 00:08:40;;;;;;;30.85;23.95;;;;;;;13.53;64.33;98698.34;674543;29;1146;-90
2023/10/27 00:09:01;;;;;;;35.05;24.63;;;;;;;13.63;64.27;98707.75;676193;29;1662;-90
2023/10/27 00:09:22;;;;;;;35.10;25.23;;;;;;;13.52;64.27;98697.47;674833;29;1287;-90
2023/10/27 00:09:44;;;;;;;31.63;24.88;;;;;;;13.55;64.30;98692.19;680368;29;1459;-90
2023/10/27 00:10:07;;;;;;;28.38;23.38;;;;;;;13.55;64.35;98699.16;674908;29;1261;-91
2023/10/27 00:10:28;;;;;;;30.75;22.80;;;;;;;13.60;64.46;98701.72;674619;29;1413;-90
2023/10/27 00:10:49;;;;;;;29.05;22.75;;;;;;;13.60;64.42;98702.59;674755;29;1231;-90
2023/10/27 00:11:09;;;;;;;33.25;24.52;;;;;;;13.59;64.30;98702.59;671756;29;1298;-91
2023/10/27 00:11:30;;;;;;;30.07;24.20;;;;;;;13.53;64.52;98700.97;673409;29;1786;-90
2023/10/27 00:11:51;;;;;;;31.40;24.13;;;;;;;13.62;64.40;98711.28;678435;29;1524;-90
2023/10/27 00:12:12;;;;;;;28.83;22.85;;;;;;;13.62;64.34;98706.03;679759;29;1476;-91
2023/10/27 00:12:33;;;;;;;28.00;22.98;;;;;;;13.62;64.23;98711.28;669507;29;1214;-90
2023/10/27 00:12:54;;;;;;;28.13;23.40;;;;;;;13.54;64.45;98690.44;676051;29;1263;-90
2023/10/27 00:13:15;;;;;;;27.08;23.70;;;;;;;13.53;64.39;98695.72;674884;29;1430;-90
2023/10/27 00:13:35;;;;;;;27.80;23.50;;;;;;;13.55;64.40;98700.06;672378;29;1245;-91
2023/10/27 00:13:56;;;;;;;28.02;23.15;;;;;;;13.57;64.31;98702.63;674709;29;1466;-90
2023/10/27 00:14:17;;;;;;;29.93;24.13;;;;;;;13.51;64.54;98692.28;677447;29;1260;-89
2023/10/27 00:14:38;;;;;;;31.30;25.20;;;;;;;13.47;64.41;98695.81;669285;29;1235;-90
2023/10/27 00:14:59;;;;;;;33.45;26.17;;;;;;;13.45;64.50;98687.13;669351;29;1567;-91
2023/10/27 00:15:20;;;;;;;32.00;25.00;;;;;;;13.54;64.34;98702.69;672994;29;1257;-89
2023/10/27 00:15:41;;;;;;;32.65;25.20;;;;;;;13.53;64.21;98700.97;674691;29;1984;-90
2023/10/27 00:16:08;;;;;;;31.13;25.27;;;;;;;13.53;64.34;98699.19;677467;29;1465;-90
2023/10/27 00:16:29;;;;;;;28.83;24.75;;;;;;;13.50;64.46;98696.63;677370;29;1257;-90
2023/10/27 00:16:51;;;;;;;26.03;23.20;;;;;;;13.51;64.53;98700.13;672148;29;1568;-88
2023/10/27 00:17:14;;;;;;;28.40;22.77;;;;;;;13.51;64.58;98700.13;677720;29;1374;-91
2023/10/27 00:17:35;;;;;;;27.75;21.77;;;;;;;13.53;64.41;98701.81;674855;29;1324;-90
2023/10/27 00:17:59;;;;;;;28.90;21.60;;;;;;;13.51;64.24;98706.22;677727;29;1552;-90
2023/10/27 00:18:20;;;;;;;28.27;22.35;;;;;;;13.54;64.46;98703.53;675012;29;1350;-90
2023/10/27 00:18:41;;;;;;;30.90;23.93;;;;;;;13.54;64.45;98700.06;672379;29;1588;-90
2023/10/27 00:19:02;;;;;;;33.10;24.40;;;;;;;13.54;64.19;98705.31;676626;29;1816;-88
2023/10/27 00:19:23;;;;;;;31.88;24.02;;;;;;;13.49;64.53;98696.66;680006;29;1443;-92
2023/10/27 00:19:43;;;;;;;29.42;22.90;;;;;;;13.48;64.54;98692.31;677507;29;1185;-90
2023/10/27 00:20:05;;;;;;;24.95;22.25;;;;;;;13.42;64.54;98682.81;671813;29;1489;-89
2023/10/27 00:20:26;;;;;;;25.10;22.05;;;;;;;13.54;64.36;98697.44;671479;29;1276;-91
2023/10/27 00:20:47;;;;;;;26.23;22.10;;;;;;;13.46;64.45;98687.09;679499;29;1880;-91
2023/10/27 00:21:08;;;;;;;24.88;21.30;;;;;;;13.55;64.43;98707.03;675789;29;1466;-89
2023/10/27 00:21:29;;;;;;;24.85;21.27;;;;;;;13.55;64.52;98707.03;677321;29;1196;-90
2023/10/27 00:21:50;;;;;;;25.83;22.10;;;;;;;13.43;64.42;98679.28;671303;29;1503;-90
2023/10/27 00:22:10;;;;;;;29.30;23.02;;;;;;;13.53;64.48;98695.72;665986;29;1586;-90
2023/10/27 00:22:53;;;;;;;34.38;24.25;;;;;;;13.55;64.39;98699.16;674529;29;1226;-89
2023/10/27 00:23:15;;;;;;;31.55;23.80;;;;;;;13.49;64.38;98699.28;674934;29;1194;-89
2023/10/27 00:23:36;;;;;;;28.85;22.55;;;;;;;13.48;64.44;98697.53;673100;29;1218;-90
2023/10/27 00:23:57;;;;;;;29.80;22.20;;;;;;;13.49;64.39;98694.91;677766;29;1657;-89
2023/10/27 00:24:18;;;;;;;28.80;21.58;;;;;;;13.41;64.40;98687.16;674806;29;1280;-90
2023/10/27 00:24:39;;;;;;;29.20;22.00;;;;;;;13.46;64.59;98694.09;677555;29;1354;-90
2023/10/27 00:25:00;;;;;;;28.40;21.75;;;;;;;13.48;64.43;98698.44;677064;29;1498;-90
2023/10/27 00:25:21;;;;;;;27.55;21.58;;;;;;;13.40;64.45;98681.97;669685;29;1327;-90
2023/10/27 00:25:42;;;;;;;23.45;20.70;;;;;;;13.41;64.47;98688.94;677165;29;1205;-90
2023/10/27 00:26:03;;;;;;;24.77;21.30;;;;;;;13.39;64.69;98683.72;674477;29;1224;-90
2023/10/27 00:26:23;;;;;;;25.15;21.60;;;;;;;13.49;64.78;98699.28;664560;29;1216;-90
2023/10/27 00:26:45;;;;;;;25.60;22.40;;;;;;;13.38;64.65;98676.75;671448;29;1516;-90
2023/10/27 00:27:06;;;;;;;23.93;21.33;;;;;;;13.41;64.50;98683.69;678595;29;1350;-91
2023/10/27 00:27:27;;;;;;;24.35;21.38;;;;;;;13.46;64.29;98689.69;674821;29;1274;-90
2023/10/27 00:27:48;;;;;;;25.10;21.48;;;;;;;13.49;64.49;98694.03;669862;29;1479;-90
2023/10/27 00:28:09;;;;;;;25.58;21.75;;;;;;;13.45;64.52;98681.91;672136;29;1246;-90
2023/10/27 00:28:29;;;;;;;24.67;21.40;;;;;;;13.46;64.39;98679.22;669262;29;1126;-90
2023/10/27 00:28:50;;;;;;;24.67;20.77;;;;;;;13.53;64.60;98696.56;671982;29;2208;-90
2023/10/27 00:29:11;;;;;;;24.52;20.10;;;;;;;13.47;64.56;98695.81;674738;29;1341;-91
2023/10/27 00:29:32;;;;;;;24.90;20.50;;;;;;;13.43;64.34;98689.78;674869;29;1306;-90
2023/10/27 00:29:52;;;;;;;27.55;20.90;;;;;;;13.43;64.76;98679.28;671667;29;1570;-90
2023/10/27 00:30:13;;;;;;;27.42;21.75;;;;;;;13.48;64.52;98676.59;677624;29;1365;-90
2023/10/27 00:30:34;;;;;;;29.30;21.90;;;;;;;13.43;64.41;98676.66;672194;29;1227;-90
2023/10/27 00:30:55;;;;;;;24.55;20.85;;;;;;;13.49;64.48;98683.56;672109;29;1594;-90
2023/10/27 00:31:16;;;;;;;23.92;19.60;;;;;;;13.42;64.36;98678.41;677004;29;1284;-90
2023/10/27 00:31:37;;;;;;;22.88;19.67;;;;;;;13.49;64.21;98680.94;674994;29;1356;-90
2023/10/27 00:31:57;;;;;;;28.60;21.92;;;;;;;13.45;64.35;98674.88;674757;29;1549;-90
2023/10/27 00:32:18;;;;;;;29.80;23.10;;;;;;;13.51;64.22;98689.66;672200;29;1286;-90
2023/10/27 00:32:40;;;;;;;30.40;23.80;;;;;;;13.55;64.59;98688.69;674439;29;1203;-90
2023/10/27 00:33:01;;;;;;;27.60;22.52;;;;;;;13.58;64.34;98691.25;674861;29;1233;-90
2023/10/27 00:33:22;;;;;;;27.95;22.60;;;;;;;13.53;64.35;98691.31;677312;29;1304;-90
2023/10/27 00:33:43;;;;;;;28.25;22.75;;;;;;;13.54;64.54;98686.97;675098;29;1377;-91
2023/10/27 00:34:04;;;;;;;27.20;23.15;;;;;;;13.51;64.38;98677.41;671942;29;1507;-90
2023/10/27 00:34:25;;;;;;;26.83;23.17;;;;;;;13.48;64.13;98679.22;674941;29;1238;-90
2023/10/27 00:34:45;;;;;;;29.35;22.80;;;;;;;13.57;64.42;98697.38;669751;29;1310;-90
2023/10/27 00:35:06;;;;;;;29.17;22.60;;;;;;;13.55;64.34;98688.69;671696;29;1467;-89
2023/10/27 00:35:27;;;;;;;28.85;22.25;;;;;;;13.47;64.40;98669.63;668991;29;1261;-90
2023/10/27 00:35:52;;;;;;;26.63;21.58;;;;;;;13.48;64.25;98666.09;674857;29;1481;-90
2023/10/27 00:36:13;;;;;;;25.55;20.63;;;;;;;13.55;64.34;98688.69;677354;29;1250;-90
2023/10/27 00:36:34;;;;;;;23.03;19.63;;;;;;;13.48;64.29;98671.34;677276;29;1670;-90
2023/10/27 00:36:55;;;;;;;24.45;20.45;;;;;;;13.48;64.42;98671.34;671841;29;1475;-90
2023/10/27 00:37:16;;;;;;;23.85;20.60;;;;;;;13.55;64.34;98689.56;667123;29;1279;-90
2023/10/27 00:37:37;;;;;;;27.30;21.07;;;;;;;13.52;64.38;98683.53;677224;29;1698;-90
2023/10/27 00:38:00;;;;;;;26.63;20.40;;;;;;;13.49;64.39;98681.81;673684;29;1552;-90
2023/10/27 00:38:21;;;;;;;26.17;20.25;;;;;;;13.53;64.49;98682.63;669570;29;1311;-88
2023/10/27 00:38:42;;;;;;;25.60;20.35;;;;;;;13.52;64.55;98686.13;668785;29;1435;-90
2023/10/27 00:39:03;;;;;;;28.55;21.08;;;;;;;13.57;64.26;98694.75;669943;29;1579;-90
2023/10/27 00:39:24;;;;;;;27.80;20.95;;;;;;;13.49;64.17;98684.44;674827;29;1408;-90
2023/10/27 00:39:45;;;;;;;25.38;20.50;;;;;;;13.56;64.52;98686.06;679370;29;1642;-90
2023/10/27 00:40:10;;;;;;;23.02;19.20;;;;;;;13.53;64.32;98686.09;677273;28;1488;-90
2023/10/27 00:40:30;;;;;;;25.35;18.45;;;;;;;13.48;64.55;98671.34;674701;29;1393;-91
2023/10/27 00:40:51;;;;;;;26.92;19.77;;;;;;;13.50;64.38;98682.66;671928;29;1620;-90
2023/10/27 00:41:12;;;;;;;26.40;20.10;;;;;;;13.52;64.33;98688.75;669783;29;1236;-90
2023/10/27 00:41:32;;;;;;;24.95;20.70;;;;;;;13.52;64.49;98684.38;677501;29;1249;-90
2023/10/27 00:41:53;;;;;;;29.40;21.30;;;;;;;13.48;64.22;98687.06;675921;29;1470;-91
2023/10/27 00:42:14;;;;;;;28.55;21.13;;;;;;;13.58;64.27;98688.63;669711;29;1125;-90
2023/10/27 00:42:35;;;;;;;26.47;20.87;;;;;;;13.46;64.30;98668.75;674527;29;1406;-89
2023/10/27 00:42:57;;;;;;;26.33;21.00;;;;;;;13.54;64.24;98686.97;674135;29;1807;-91
2023/10/27 00:43:17;;;;;;;28.13;21.88;;;;;;;13.57;64.27;98693.00;672140;29;1228;-90
2023/10/27 00:43:38;;;;;;;30.00;23.10;;;;;;;13.50;64.22;98677.41;677423;29;1342;-90
2023/10/27 00:43:59;;;;;;;31.48;23.42;;;;;;;13.47;64.46;98670.50;679274;29;1803;-90
2023/10/27 00:44:22;;;;;;;31.08;22.75;;;;;;;13.59;64.38;98694.75;672288;29;1138;-90
2023/10/27 00:44:43;;;;;;;31.25;22.80;;;;;;;13.50;64.44;98682.66;678501;29;1238;-90
2023/10/27 00:45:04;;;;;;;26.73;21.35;;;;;;;13.48;64.39;98676.59;671803;29;1786;-90
2023/10/27 00:45:26;;;;;;;22.60;20.17;;;;;;;13.51;64.70;98679.16;674450;29;1232;-90
2023/10/27 00:45:51;;;;;;;22.83;20.40;;;;;;;13.48;64.19;98672.22;672339;29;1286;-90
2023/10/27 00:46:12;;;;;;;25.50;21.13;;;;;;;13.49;64.35;98675.69;676746;29;1163;-90
2023/10/27 00:46:33;;;;;;;27.52;22.13;;;;;;;13.48;64.32;98673.97;679806;29;1349;-89
2023/10/27 00:46:55;;;;;;;26.33;21.33;;;;;;;13.51;64.45;98676.56;670638;29;1483;-89
2023/10/27 00:47:16;;;;;;;24.50;20.98;;;;;;;13.48;64.11;98666.09;671806;29;1269;-90
2023/10/27 00:47:36;;;;;;;23.25;20.67;;;;;;;13.51;64.27;98676.56;677378;29;1309;-91
2023/10/27 00:47:58;;;;;;;23.27;20.73;;;;;;;13.47;64.32;98670.50;670842;29;1293;-91
2023/10/27 00:48:20;;;;;;;23.27;20.77;;;;;;;13.46;64.23;98662.66;674750;29;1360;-91
2023/10/27 00:48:41;;;;;;;23.48;20.58;;;;;;;13.47;64.42;98672.25;677441;29;883;-90
2023/10/27 00:49:03;;;;;;;23.98;20.80;;;;;;;13.52;64.43;98684.38;677171;29;1593;-91
2023/10/27 00:49:25;;;;;;;23.95;20.80;;;;;;;13.53;64.12;98680.84;666655;29;1656;-90
2023/10/27 00:49:45;;;;;;;23.30;20.65;;;;;;;13.51;64.13;98672.16;672364;29;1390;-90
2023/10/27 00:50:06;;;;;;;23.38;20.23;;;;;;;13.57;64.43;98686.91;674516;29;1782;-90
2023/10/27 00:50:27;;;;;;;23.27;19.52;;;;;;;13.51;64.58;98673.94;679735;29;1050;-90
2023/10/27 00:50:49;;;;;;;23.48;19.38;;;;;;;13.42;64.21;98657.47;677474;29;1285;-89
2023/10/27 00:51:11;;;;;;;24.98;19.90;;;;;;;13.45;64.29;98663.56;669738;29;1183;-90
2023/10/27 00:51:32;;;;;;;27.48;21.67;;;;;;;13.49;64.42;98668.72;672248;29;1283;-90
2023/10/27 00:51:53;;;;;;;27.45;21.67;;;;;;;13.48;64.08;98668.72;675230;29;1523;-90
2023/10/27 00:52:15;;;;;;;30.65;22.52;;;;;;;13.49;64.20;98671.34;677308;29;1455;-89
2023/10/27 00:52:36;;;;;;;29.33;21.65;;;;;;;13.54;64.08;98679.94;677185;29;1231;-89
2023/10/27 00:52:57;;;;;;;27.10;20.38;;;;;;;13.45;64.48;98671.41;677743;29;1318;-90
2023/10/27 00:53:22;;;;;;;24.83;20.30;;;;;;;13.55;64.33;98689.56;677418;29;1443;-90
2023/10/27 00:53:43;;;;;;;25.63;20.40;;;;;;;13.52;64.51;98688.75;672441;29;1268;-90
2023/10/27 00:54:43;;;;;;;25.75;20.50;;;;;;;13.56;64.26;98690.41;674542;29;1155;-90
2023/10/27 00:55:05;;;;;;;24.25;19.30;;;;;;;13.53;64.07;98685.25;674348;29;1477;-90
2023/10/27 00:55:27;;;;;;;24.67;18.63;;;;;;;13.47;64.20;98669.63;672366;29;1336;-91
2023/10/27 00:55:50;;;;;;;25.23;19.05;;;;;;;13.54;64.46;98693.06;674525;29;1914;-90
2023/10/27 00:56:11;;;;;;;26.35;19.52;;;;;;;13.48;64.60;98676.59;672272;29;1436;-90
2023/10/27 00:56:33;;;;;;;25.83;19.50;;;;;;;13.46;64.49;98675.75;674884;29;1428;-90
2023/10/27 00:56:55;;;;;;;23.25;19.05;;;;;;;13.53;64.59;98693.94;671965;29;1660;-90
2023/10/27 00:57:18;;;;;;;25.10;18.85;;;;;;;13.53;64.41;98690.47;667193;29;1292;-90
2023/10/27 00:57:41;;;;;;;22.70;18.17;;;;;;;13.49;64.41;98678.31;672460;29;1267;-90
2023/10/27 00:58:03;;;;;;;23.92;18.60;;;;;;;13.48;64.39;98681.81;671839;29;1558;-89
2023/10/27 00:58:24;;;;;;;21.00;18.40;;;;;;;13.51;64.41;98676.56;672230;29;1321;-91
2023/10/27 00:58:45;;;;;;;22.35;18.30;;;;;;;13.51;64.40;98677.41;671854;29;1365;-90
2023/10/27 00:59:06;;;;;;;22.10;19.15;;;;;;;13.45;64.23;98668.78;674344;29;1597;-90
2023/10/27 00:59:28;;;;;;;22.45;19.92;;;;;;;13.47;64.11;98670.50;674850;29;1384;-90
2023/10/27 00:59:50;;;;;;;25.30;21.13;;;;;;;13.50;64.11;98669.56;677171;29;1778;-91
2023/10/27 01:00:12;;;;;;;27.80;21.85;;;;;;;13.53;64.13;98680.84;669845;29;1109;-91
2023/10/27 01:00:33;;;;;;;28.17;20.98;;;;;;;13.45;64.14;98669.63;669501;29;1487;-90
2023/10/27 01:00:57;;;;;;;24.55;19.77;;;;;;;13.56;64.41;98686.06;674700;29;1892;-90
2023/10/27 01:01:18;;;;;;;26.17;19.45;;;;;;;13.52;64.18;98673.03;674739;29;1487;-90
2023/10/27 01:01:38;;;;;;;28.38;19.70;;;;;;;13.45;64.05;98667.03;669646;29;1229;-90
2023/10/27 01:01:59;;;;;;;27.20;20.17;;;;;;;13.43;64.10;98659.22;671151;29;1161;-90
2023/10/27 01:02:21;;;;;;;26.48;21.23;;;;;;;13.48;64.45;98672.22;668491;29;1160;-90
2023/10/27 01:02:42;;;;;;;26.42;22.35;;;;;;;13.47;64.12;98674.88;669701;29;1301;-89
2023/10/27 01:03:04;;;;;;;29.10;22.92;;;;;;;13.45;63.99;98667.03;674371;29;1422;-90
2023/10/27 01:03:25;;;;;;;32.00;23.10;;;;;;;13.45;64.16;98672.25;671989;29;1245;-90
2023/10/27 01:03:46;;;;;;;30.25;22.13;;;;;;;13.43;64.09;98664.44;671738;29;1372;-90
2023/10/27 01:04:07;;;;;;;27.83;21.95;;;;;;;13.51;64.12;98687.88;676663;29;1768;-91
2023/10/27 01:04:43;;;;;;;23.90;21.40;;;;;;;13.44;64.09;98660.06;680168;29;1223;-89
2023/10/27 01:05:04;;;;;;;22.65;20.25;;;;;;;13.48;64.28;98669.59;676395;29;1554;-90
2023/10/27 01:05:24;;;;;;;23.58;19.88;;;;;;;13.47;64.41;98670.50;669448;29;1367;-90
2023/10/27 01:05:45;;;;;;;25.50;20.52;;;;;;;13.40;64.52;98656.63;674743;29;1194;-91
2023/10/27 01:06:06;;;;;;;26.33;19.85;;;;;;;13.42;64.20;98662.69;675957;29;1565;-90
2023/10/27 01:06:28;;;;;;;25.60;19.80;;;;;;;13.45;64.14;98661.78;674647;29;1146;-90
2023/10/27 01:06:48;;;;;;;23.33;19.58;;;;;;;13.48;64.34;98671.34;674632;29;2112;-90
2023/10/27 01:07:09;;;;;;;23.58;20.17;;;;;;;13.39;64.25;98657.53;664468;29;1392;-90
2023/10/27 01:07:30;;;;;;;25.20;20.83;;;;;;;13.45;64.08;98672.25;674862;29;1136;-90
2023/10/27 01:07:51;;;;;;;30.33;20.80;;;;;;;13.42;64.36;98652.22;674468;29;1624;-90
2023/10/27 01:08:12;;;;;;;29.50;20.65;;;;;;;13.35;64.37;98650.63;672263;29;1375;-91
2023/10/27 01:08:33;;;;;;;28.00;20.00;;;;;;;13.43;64.09;98664.44;671823;29;1207;-89
2023/10/27 01:08:54;;;;;;;22.02;18.98;;;;;;;13.46;64.36;98662.66;671430;29;1205;-90
2023/10/27 01:09:16;;;;;;;20.95;18.23;;;;;;;13.43;64.01;98663.56;672024;29;1195;-89
2023/10/27 01:09:37;;;;;;;20.63;17.67;;;;;;;13.47;64.22;98669.63;680065;29;1245;-90
2023/10/27 01:09:58;;;;;;;21.23;18.30;;;;;;;13.44;64.17;98665.28;672722;29;1640;-90
2023/10/27 01:10:19;;;;;;;23.15;19.92;;;;;;;13.36;64.37;98654.97;664500;29;1138;-90
2023/10/27 01:10:40;;;;;;;24.27;20.65;;;;;;;13.37;64.19;98654.06;672070;29;1558;-90
2023/10/27 01:11:02;;;;;;;24.30;20.70;;;;;;;13.43;64.24;98667.06;676132;29;1458;-90
2023/10/27 01:11:24;;;;;;;24.25;19.48;;;;;;;13.39;64.34;98662.75;677335;29;1286;-90
2023/10/27 01:11:45;;;;;;;21.23;18.45;;;;;;;13.35;64.22;98649.75;674755;29;1254;-90
2023/10/27 01:12:06;;;;;;;22.65;19.15;;;;;;;13.34;64.12;98654.09;670138;29;1552;-90
2023/10/27 01:12:27;;;;;;;22.92;19.80;;;;;;;13.43;64.35;98674.94;672508;29;1359;-89
2023/10/27 01:12:50;;;;;;;22.38;19.67;;;;;;;13.39;64.18;98656.69;670716;29;1508;-89
2023/10/27 01:13:11;;;;;;;24.75;19.50;;;;;;;13.41;64.12;98666.22;674722;29;1385;-90
2023/10/27 01:13:33;;;;;;;25.42;19.55;;;;;;;13.46;64.05;98675.75;672110;29;1171;-90
2023/10/27 01:13:55;;;;;;;22.83;18.77;;;;;;;13.42;64.24;98667.94;668959;29;1544;-89
2023/10/27 01:14:17;;;;;;;21.80;18.80;;;;;;;13.40;64.38;98664.47;669525;29;1409;-89
2023/10/27 01:14:38;;;;;;;23.38;18.83;;;;;;;13.41;64.28;98660.13;677597;29;1344;-90
2023/10/27 01:14:59;;;;;;;23.95;18.80;;;;;;;13.45;64.29;98663.56;669443;29;1475;-90
2023/10/27 01:15:21;;;;;;;21.55;18.35;;;;;;;13.43;64.31;98672.31;674519;29;1387;-89
2023/10/27 01:15:42;;;;;;;21.38;19.15;;;;;;;13.45;64.09;98666.19;674689;29;2000;-89
2023/10/27 01:16:03;;;;;;;22.33;20.08;;;;;;;13.39;64.13;98662.75;679572;29;1472;-90
2023/10/27 01:16:24;;;;;;;24.13;21.25;;;;;;;13.41;64.37;98662.75;673859;29;1184;-89
2023/10/27 01:16:45;;;;;;;25.90;21.55;;;;;;;13.45;64.08;98671.41;669633;29;1076;-89
2023/10/27 01:17:06;;;;;;;26.27;20.90;;;;;;;13.39;64.25;98660.13;674604;29;1509;-89
2023/10/27 01:17:26;;;;;;;24.65;20.52;;;;;;;13.46;64.10;98666.13;672114;29;1324;-90
2023/10/27 01:17:47;;;;;;;23.30;20.27;;;;;;;13.37;64.23;98659.31;669784;29;1430;-90
2023/10/27 01:18:08;;;;;;;24.30;21.08;;;;;;;13.42;64.29;98667.94;671969;29;1566;-90
2023/10/27 01:18:29;;;;;;;24.70;21.08;;;;;;;13.38;64.10;98661.03;671739;29;1129;-90
2023/10/27 01:18:49;;;;;;;25.50;20.90;;;;;;;13.42;64.31;98670.56;672131;29;1448;-89
2023/10/27 01:19:10;;;;;;;24.38;20.52;;;;;;;13.36;64.11;98654.09;674781;29;1216;-90
2023/10/27 01:19:31;;;;;;;24.33;20.10;;;;;;;13.45;64.10;98677.50;667089;29;1514;-90
2023/10/27 01:19:51;;;;;;;26.70;19.93;;;;;;;13.42;64.35;98670.56;667756;29;1719;-91
2023/10/27 01:20:12;;;;;;;26.90;19.77;;;;;;;13.37;64.18;98659.31;669067;29;1319;-90
2023/10/27 01:20:33;;;;;;;25.80;19.40;;;;;;;13.40;64.16;98666.25;672111;29;1291;-91
2023/10/27 01:20:54;;;;;;;23.60;19.20;;;;;;;13.32;64.22;98650.66;669319;29;1569;-90
2023/10/27 01:21:15;;;;;;;24.20;19.55;;;;;;;13.40;64.27;98668.88;669722;29;1354;-90
2023/10/27 01:21:36;;;;;;;23.30;20.13;;;;;;;13.41;64.00;98666.22;671951;29;1330;-90
2023/10/27 01:21:57;;;;;;;26.20;21.02;;;;;;;13.34;64.14;98659.34;670155;29;1243;-91
2023/10/27 01:22:18;;;;;;;26.10;20.57;;;;;;;13.39;64.23;98665.38;674605;29;1181;-91
2023/10/27 01:22:42;;;;;;;25.53;19.97;;;;;;;13.33;64.25;98656.78;674665;29;1367;-90
2023/10/27 01:23:04;;;;;;;21.83;19.20;;;;;;;13.41;64.14;98675.84;676065;29;1645;-91
2023/10/27 01:23:25;;;;;;;22.55;18.83;;;;;;;13.41;64.22;98668.81;674760;29;1462;-91
2023/10/27 01:23:46;;;;;;;22.58;18.52;;;;;;;13.30;64.26;98650.69;669793;29;1429;-90
2023/10/27 01:24:07;;;;;;;22.13;18.90;;;;;;;13.33;64.16;98657.63;672036;29;1452;-91
2023/10/27 01:24:28;;;;;;;22.63;19.25;;;;;;;13.40;64.44;98672.34;674146;29;1426;-90
2023/10/27 01:24:50;;;;;;;22.38;19.30;;;;;;;13.43;64.28;98685.41;674650;29;1719;-90
2023/10/27 01:25:12;;;;;;;21.98;18.85;;;;;;;13.31;64.07;98662.03;671286;29;1278;-90
2023/10/27 01:25:33;;;;;;;21.98;19.40;;;;;;;13.37;64.06;98661.94;679881;29;1395;-91
2023/10/27 01:25:55;;;;;;;21.67;19.38;;;;;;;13.36;64.18;98665.44;674460;29;1701;-90
2023/10/27 01:26:16;;;;;;;24.10;20.75;;;;;;;13.38;64.35;98675.88;671601;29;1569;-91
2023/10/27 01:26:36;;;;;;;25.43;20.37;;;;;;;13.41;64.28;98671.44;677266;29;1299;-91
2023/10/27 01:26:59;;;;;;;29.30;19.77;;;;;;;13.36;63.90;98667.19;677080;29;2047;-91
2023/10/27 01:27:20;;;;;;;26.92;18.98;;;;;;;13.45;64.09;98681.91;677233;29;1281;-91
2023/10/27 01:27:41;;;;;;;27.60;19.58;;;;;;;13.42;64.05;98678.41;676466;29;1173;-91
2023/10/27 01:28:03;;;;;;;26.10;20.40;;;;;;;13.43;64.15;98681.91;677515;29;1608;-90
2023/10/27 01:28:24;;;;;;;23.65;20.00;;;;;;;13.34;64.27;98659.34;677386;29;1099;-91
2023/10/27 01:28:44;;;;;;;23.67;19.80;;;;;;;13.43;64.21;98682.78;673733;29;1556;-92
2023/10/27 01:29:05;;;;;;;21.92;19.17;;;;;;;13.37;64.21;98671.53;669516;29;1586;-91
2023/10/27 01:29:28;;;;;;;22.23;19.10;;;;;;;13.42;64.22;98675.78;672055;29;1191;-92
2023/10/27 01:29:49;;;;;;;22.70;19.05;;;;;;;13.36;64.37;98667.19;669538;29;1364;-92
2023/10/27 01:30:10;;;;;;;24.88;19.48;;;;;;;13.37;64.35;98669.78;672230;29;1309;-91
2023/10/27 01:30:31;;;;;;;25.90;19.50;;;;;;;13.38;64.18;98671.50;676732;29;1236;-91
2023/10/27 01:30:52;;;;;;;28.67;20.63;;;;;;;13.42;64.44;98681.03;672262;29;1432;-91
2023/10/27 01:31:13;;;;;;;27.45;20.50;;;;;;;13.42;64.23;98672.31;669853;29;1107;-91
2023/10/27 01:31:34;;;;;;;26.92;19.98;;;;;;;13.45;64.16;98681.91;667194;29;1334;-91
2023/10/27 01:31:55;;;;;;;24.23;19.70;;;;;;;13.39;64.09;98669.78;671322;29;1245;-91
2023/10/27 01:32:16;;;;;;;24.58;19.23;;;;;;;13.42;64.07;98673.19;676496;29;1128;-89
2023/10/27 01:32:40;;;;;;;23.73;19.23;;;;;;;13.35;64.03;98666.34;673223;29;1732;-91
2023/10/27 01:33:01;;;;;;;26.40;20.15;;;;;;;13.35;64.13;98662.84;669200;29;1403;-91
2023/10/27 01:33:23;;;;;;;27.30;20.58;;;;;;;13.43;63.99;98674.06;673923;29;1403;-90
2023/10/27 01:33:44;;;;;;;28.10;20.80;;;;;;;13.39;64.25;98661.91;674578;29;1171;-90
2023/10/27 01:34:05;;;;;;;26.95;21.10;;;;;;;13.32;64.23;98658.50;675328;29;1155;-91
2023/10/27 01:34:26;;;;;;;25.13;21.58;;;;;;;13.43;64.35;98674.06;674654;29;1233;-90
2023/10/27 01:34:46;;;;;;;24.30;20.77;;;;;;;13.34;64.13;98661.97;674038;29;1649;-90
2023/10/27 01:35:08;;;;;;;25.27;20.00;;;;;;;13.32;64.13;98658.50;674496;29;1233;-91
2023/10/27 01:35:28;;;;;;;26.35;19.92;;;;;;;13.43;64.26;98676.66;674693;29;1215;-90
2023/10/27 01:35:51;;;;;;;24.83;20.27;;;;;;;13.31;64.36;98654.16;676925;29;1979;-90
2023/10/27 01:36:12;;;;;;;23.55;19.40;;;;;;;13.39;64.21;98667.16;677295;29;1329;-90
2023/10/27 01:36:33;;;;;;;25.77;19.20;;;;;;;13.37;63.98;98663.66;675849;29;1341;-91
2023/10/27 01:36:55;;;;;;;25.63;18.90;;;;;;;13.43;64.14;98674.94;671255;29;1128;-90
2023/10/27 01:37:15;;;;;;;24.70;19.42;;;;;;;13.31;64.48;98656.78;671576;29;1170;-91
2023/10/27 01:37:36;;;;;;;23.58;19.70;;;;;;;13.42;64.28;98673.19;672130;29;1334;-90
2023/10/27 01:37:58;;;;;;;24.23;20.60;;;;;;;13.34;64.28;98664.59;677147;29;1389;-90
2023/10/27 01:38:19;;;;;;;26.27;20.63;;;;;;;13.33;64.27;98659.41;674572;29;1488;-90
2023/10/27 01:38:41;;;;;;;26.00;20.55;;;;;;;13.28;64.16;98649.00;674394;29;1224;-91
2023/10/27 01:39:02;;;;;;;26.05;20.17;;;;;;;13.38;64.40;98668.91;677919;29;1268;-90
2023/10/27 01:39:23;;;;;;;22.85;19.33;;;;;;;13.40;64.19;98674.97;668923;29;1225;-91
2023/10/27 01:39:46;;;;;;;23.75;20.27;;;;;;;13.41;64.17;98668.81;674723;29;1289;-91
2023/10/27 01:40:07;;;;;;;24.33;20.48;;;;;;;13.36;64.02;98668.06;676998;29;1282;-90
2023/10/27 01:40:28;;;;;;;24.20;20.33;;;;;;;13.37;64.04;98659.31;674353;29;1541;-90
2023/10/27 01:40:49;;;;;;;22.00;19.52;;;;;;;13.40;64.29;98668.88;671966;29;1163;-89
2023/10/27 01:41:10;;;;;;;22.20;19.73;;;;;;;13.43;64.20;98674.94;672133;29;1298;-91
2023/10/27 01:41:33;;;;;;;22.52;19.92;;;;;;;13.42;64.32;98669.72;680313;29;1299;-90